createdAt,value
2022-09-28T00:00:18.005Z,29.756
2022-09-28T00:05:17.801Z,29.758
2022-09-28T00:10:17.887Z,29.761
2022-09-28T00:15:18.117Z,29.762
2022-09-28T00:20:18.102Z,29.762
2022-09-28T00:25:17.764Z,29.762
2022-09-28T00:30:18.222Z,29.763
2022-09-28T00:35:17.985Z,29.763
2022-09-28T00:40:18.033Z,29.767
2022-09-28T00:45:18.174Z,29.766
2022-09-28T00:50:17.969Z,29.768
2022-09-28T00:55:17.912Z,29.769
2022-09-28T01:00:18.482Z,29.771
2022-09-28T01:05:17.935Z,29.771
2022-09-28T01:10:18.365Z,29.771
2022-09-28T01:15:18.001Z,29.770
2022-09-28T01:20:18.200Z,29.771
2022-09-28T01:25:18.201Z,29.775
2022-09-28T01:30:18.207Z,29.776
2022-09-28T01:35:17.958Z,29.780
2022-09-28T01:40:18.240Z,29.780
2022-09-28T01:45:18.277Z,29.782
2022-09-28T01:50:18.149Z,29.784
2022-09-28T01:55:18.071Z,29.785
2022-09-28T02:00:20.128Z,29.787
2022-09-28T02:05:18.076Z,29.789
2022-09-28T02:10:18.238Z,29.790
2022-09-28T02:15:18.090Z,29.791
2022-09-28T02:20:18.367Z,29.795
2022-09-28T02:25:18.094Z,29.797
2022-09-28T02:30:18.428Z,29.798
2022-09-28T02:35:16.265Z,29.800
2022-09-28T02:40:17.565Z,29.802
2022-09-28T02:45:16.229Z,29.801
2022-09-28T02:50:16.590Z,29.802
2022-09-28T02:55:16.377Z,29.803
2022-09-28T03:00:16.722Z,29.804
2022-09-28T03:05:16.170Z,29.803
2022-09-28T03:10:16.981Z,29.806
2022-09-28T03:15:16.483Z,29.805
2022-09-28T03:20:16.309Z,29.806
2022-09-28T03:25:16.183Z,29.806
2022-09-28T03:30:16.653Z,29.805
2022-09-28T03:35:16.356Z,29.805
2022-09-28T03:40:16.265Z,29.806
2022-09-28T03:45:16.771Z,29.804
2022-09-28T03:50:16.370Z,29.804
2022-09-28T03:55:16.397Z,29.802
2022-09-28T04:00:17.772Z,29.802
2022-09-28T04:05:17.359Z,29.804
2022-09-28T04:10:17.415Z,29.806
2022-09-28T04:15:17.548Z,29.805
2022-09-28T04:20:17.573Z,29.806
2022-09-28T04:25:17.334Z,29.807
2022-09-28T04:30:17.487Z,29.809
2022-09-28T04:35:17.514Z,29.812
2022-09-28T04:40:17.438Z,29.814
2022-09-28T04:45:17.771Z,29.815
2022-09-28T04:50:17.562Z,29.816
2022-09-28T04:55:17.425Z,29.817
2022-09-28T05:00:17.549Z,29.818
2022-09-28T05:05:17.501Z,29.816
2022-09-28T05:10:17.598Z,29.815
2022-09-28T05:15:17.648Z,29.816
2022-09-28T05:20:17.521Z,29.819
2022-09-28T05:25:17.546Z,29.818
2022-09-28T05:30:17.994Z,29.819
2022-09-28T05:35:17.608Z,29.821
2022-09-28T05:40:17.665Z,29.822
2022-09-28T05:45:19.032Z,29.825
2022-09-28T05:50:17.765Z,29.826
2022-09-28T05:55:17.928Z,29.826
2022-09-28T06:00:17.688Z,29.826
2022-09-28T06:05:17.611Z,29.824
2022-09-28T06:10:17.630Z,29.825
2022-09-28T06:15:17.646Z,29.825
2022-09-28T06:20:17.819Z,29.827
2022-09-28T06:25:17.699Z,29.824
2022-09-28T06:30:17.816Z,29.822
2022-09-28T06:35:17.697Z,29.827
2022-09-28T06:40:18.016Z,29.827
2022-09-28T06:45:18.494Z,29.826
2022-09-28T06:50:17.697Z,29.825
2022-09-28T06:55:17.908Z,29.825
2022-09-28T07:00:17.957Z,29.825
2022-09-28T07:05:17.960Z,29.824
2022-09-28T07:10:17.710Z,29.821
2022-09-28T07:15:19.204Z,29.822
2022-09-28T07:20:19.431Z,29.825
2022-09-28T07:25:17.758Z,29.829
2022-09-28T07:30:18.108Z,29.826
2022-09-28T07:35:17.807Z,29.826
2022-09-28T07:40:19.952Z,29.830
2022-09-28T07:45:18.018Z,29.832
2022-09-28T07:50:17.848Z,29.832
2022-09-28T07:55:17.948Z,29.831
2022-09-28T08:00:18.302Z,29.833
2022-09-28T08:05:17.700Z,29.837
2022-09-28T08:10:17.948Z,29.841
2022-09-28T08:15:18.182Z,29.841
2022-09-28T08:20:17.898Z,29.841
2022-09-28T08:25:17.875Z,29.843
2022-09-28T08:30:18.139Z,29.843
2022-09-28T08:35:17.944Z,29.845
2022-09-28T08:40:18.027Z,29.847
2022-09-28T08:45:18.116Z,29.845
2022-09-28T08:50:18.016Z,29.845
2022-09-28T08:55:18.264Z,29.845
2022-09-28T09:00:18.261Z,29.845
2022-09-28T09:05:18.375Z,29.844
2022-09-28T09:10:18.037Z,29.843
2022-09-28T09:15:18.437Z,29.842
2022-09-28T09:20:18.027Z,29.844
2022-09-28T09:25:18.219Z,29.846
2022-09-28T09:30:20.337Z,29.843
2022-09-28T09:35:19.140Z,29.841
2022-09-28T09:40:19.508Z,29.844
2022-09-28T09:45:18.838Z,29.844
2022-09-28T09:50:18.155Z,29.847
2022-09-28T09:55:18.054Z,29.849
2022-09-28T10:00:18.555Z,29.851
2022-09-28T10:05:18.049Z,29.852
2022-09-28T10:10:18.198Z,29.855
2022-09-28T10:15:18.358Z,29.856
2022-09-28T10:20:18.341Z,29.859
2022-09-28T10:25:18.105Z,29.858
2022-09-28T10:30:18.464Z,29.861
2022-09-28T10:35:18.355Z,29.863
2022-09-28T10:40:18.303Z,29.864
2022-09-28T10:45:16.198Z,29.865
2022-09-28T10:50:16.418Z,29.864
2022-09-28T10:55:16.146Z,29.866
2022-09-28T11:00:16.671Z,29.866
2022-09-28T11:05:16.210Z,29.871
2022-09-28T11:10:16.621Z,29.873
2022-09-28T11:15:16.251Z,29.876
2022-09-28T11:20:16.366Z,29.876
2022-09-28T11:25:16.371Z,29.876
2022-09-28T11:30:16.569Z,29.878
2022-09-28T11:35:16.252Z,29.876
2022-09-28T11:40:16.665Z,29.880
2022-09-28T11:45:16.820Z,29.883
2022-09-28T11:50:20.059Z,29.885
2022-09-28T11:55:16.302Z,29.887
2022-09-28T12:00:16.638Z,29.887
2022-09-28T12:05:20.755Z,29.886
2022-09-28T12:10:17.043Z,29.890
2022-09-28T12:15:16.452Z,29.891
2022-09-28T12:20:16.680Z,29.893
2022-09-28T12:25:16.361Z,29.893
2022-09-28T12:30:16.392Z,29.895
2022-09-28T12:35:16.521Z,29.895
2022-09-28T12:40:16.554Z,29.895
2022-09-28T12:45:16.569Z,29.895
2022-09-28T12:50:57.158Z,29.894
2022-09-28T12:55:16.606Z,29.895
2022-09-28T13:00:16.923Z,29.896
2022-09-28T13:05:16.366Z,29.898
2022-09-28T13:10:16.730Z,29.900
2022-09-28T13:15:16.515Z,29.902
2022-09-28T13:20:16.517Z,29.904
2022-09-28T13:25:16.505Z,29.904
2022-09-28T13:30:16.822Z,29.908
2022-09-28T13:35:16.628Z,29.910
2022-09-28T13:40:16.746Z,29.910
2022-09-28T13:45:16.674Z,29.911
2022-09-28T13:50:16.637Z,29.913
2022-09-28T13:55:17.539Z,29.915
2022-09-28T14:00:16.706Z,29.916
2022-09-28T14:05:16.545Z,29.916
2022-09-28T14:10:16.865Z,29.918
2022-09-28T14:15:17.277Z,29.918
2022-09-28T14:20:16.843Z,29.921
2022-09-28T14:25:16.600Z,29.923
2022-09-28T14:30:16.745Z,29.921
2022-09-28T14:35:18.763Z,29.922
2022-09-28T14:40:16.862Z,29.922
2022-09-28T14:45:16.774Z,29.922
2022-09-28T14:50:16.933Z,29.922
2022-09-28T14:55:16.818Z,29.921
2022-09-28T15:00:16.975Z,29.920
2022-09-28T15:05:17.083Z,29.918
2022-09-28T15:10:18.219Z,29.917
2022-09-28T15:15:16.874Z,29.916
2022-09-28T15:20:16.967Z,29.916
2022-09-28T15:25:16.907Z,29.917
2022-09-28T15:30:17.059Z,29.916
2022-09-28T15:35:16.792Z,29.917
2022-09-28T15:40:16.953Z,29.918
2022-09-28T15:45:16.923Z,29.917
2022-09-28T15:50:17.093Z,29.922
2022-09-28T15:55:16.791Z,29.923
2022-09-28T16:00:17.060Z,29.922
2022-09-28T16:05:16.738Z,29.923
2022-09-28T16:10:16.845Z,29.925
2022-09-28T16:15:17.230Z,29.924
2022-09-28T16:20:16.964Z,29.926
2022-09-28T16:25:17.074Z,29.929
2022-09-28T16:30:17.042Z,29.928
2022-09-28T16:35:17.066Z,29.928
2022-09-28T16:40:17.051Z,29.931
2022-09-28T16:45:17.161Z,29.930
2022-09-28T16:50:17.004Z,29.928
2022-09-28T16:55:52.572Z,29.930
2022-09-28T17:20:16.989Z,29.933
2022-09-28T17:25:17.076Z,29.933
2022-09-28T17:30:17.166Z,29.934
2022-09-28T17:35:25.420Z,29.935
2022-09-28T17:40:17.390Z,29.936
2022-09-28T17:45:17.673Z,29.937
2022-09-28T17:50:17.221Z,29.933
2022-09-28T17:55:17.029Z,29.937
2022-09-28T18:00:17.501Z,29.937
2022-09-28T18:05:17.033Z,29.935
2022-09-28T18:10:17.137Z,29.937
2022-09-28T18:15:17.224Z,29.936
2022-09-28T18:20:17.280Z,29.936
2022-09-28T18:25:17.181Z,29.938
2022-09-28T18:30:17.260Z,29.944
2022-09-28T18:35:21.987Z,29.943
2022-09-28T18:40:17.258Z,29.945
2022-09-28T18:45:17.223Z,29.946
2022-09-28T18:50:17.188Z,29.947
2022-09-28T18:55:17.328Z,29.946
2022-09-28T19:00:17.297Z,29.946
2022-09-28T19:05:17.200Z,29.947
2022-09-28T19:10:18.157Z,29.946
2022-09-28T19:15:21.207Z,29.943
2022-09-28T19:20:17.234Z,29.945
2022-09-28T19:25:17.206Z,29.946
2022-09-28T19:30:17.601Z,29.946
2022-09-28T19:35:17.306Z,29.947
2022-09-28T19:40:17.702Z,29.947
2022-09-28T19:45:17.421Z,29.946
2022-09-28T19:50:17.221Z,29.951
2022-09-28T19:55:17.371Z,29.952
2022-09-28T20:00:17.369Z,29.954
2022-09-28T20:05:17.533Z,29.954
2022-09-28T20:10:17.280Z,29.956
2022-09-28T20:15:17.468Z,29.956
2022-09-28T20:20:17.338Z,29.956
2022-09-28T20:25:48.197Z,29.958
2022-09-28T20:30:17.596Z,29.957
2022-09-28T20:35:30.319Z,29.959
2022-09-28T20:40:17.548Z,29.961
2022-09-28T20:45:17.678Z,29.962
2022-09-28T20:50:17.471Z,29.963
2022-09-28T20:55:17.547Z,29.966
2022-09-28T21:00:18.748Z,29.967
2022-09-28T21:05:17.789Z,29.971
2022-09-28T21:10:17.562Z,29.975
2022-09-28T21:15:17.706Z,29.978
2022-09-28T21:20:17.640Z,29.979
2022-09-28T21:25:17.546Z,29.980
2022-09-28T21:30:17.861Z,29.980
2022-09-28T21:35:17.448Z,29.979
2022-09-28T21:40:17.643Z,29.980
2022-09-28T21:45:17.722Z,29.980
2022-09-28T21:50:17.672Z,29.982
2022-09-28T21:55:17.490Z,29.981
2022-09-28T22:00:17.654Z,29.982
2022-09-28T22:05:17.567Z,29.985
2022-09-28T22:10:17.599Z,29.986
2022-09-28T22:15:17.569Z,29.989
2022-09-28T22:20:17.625Z,29.991
2022-09-28T22:25:17.616Z,29.990
2022-09-28T22:30:17.671Z,29.993
2022-09-28T22:35:17.541Z,29.996
2022-09-28T22:40:18.006Z,29.997
2022-09-28T22:45:17.837Z,30.001
2022-09-28T22:50:17.667Z,30.000
2022-09-28T22:55:17.646Z,30.003
2022-09-28T23:00:18.912Z,30.009
2022-09-28T23:05:17.642Z,30.011
2022-09-28T23:10:17.743Z,30.015
2022-09-28T23:15:17.861Z,30.018
2022-09-28T23:20:17.729Z,30.021
2022-09-28T23:25:17.858Z,30.024
2022-09-28T23:30:18.172Z,30.026
2022-09-28T23:35:17.866Z,30.028
2022-09-28T23:40:17.838Z,30.032
2022-09-28T23:45:18.160Z,30.035
2022-09-28T23:50:18.013Z,30.036
2022-09-28T23:55:17.761Z,30.038
